Time;durP1;ratioP1;P1;durP2;ratioP2;P2;SDS_P1;SDS_P2;PMS_P1;PMS_P2;Temp;Humidity;BMP_temperature;BMP_pressure;BME280_temperature;BME280_humidity;BME280_pressure;Samples;Min_cycle;Max_cycle;Signal;HPM_P1;HPM_P2
2023/08/07 00:00:41;;;;;;;7.65;4.00;;;15.30;99.90;;;;;;4947904;28;20071;-75
2023/08/07 00:03:06;;;;;;;4.82;4.07;;;15.30;99.90;;;;;;4931360;28;20483;-75
2023/08/07 00:05:32;;;;;;;5.75;4.22;;;15.30;99.90;;;;;;4945459;28;20035;-75
2023/08/07 00:07:58;;;;;;;6.22;4.25;;;15.30;99.90;;;;;;4947600;28;20047;-75
2023/08/07 00:10:24;;;;;;;6.63;4.30;;;15.30;99.90;;;;;;4961049;28;20082;-75
2023/08/07 00:12:49;;;;;;;6.93;4.22;;;15.30;99.90;;;;;;4948913;28;20039;-75
2023/08/07 00:15:15;;;;;;;5.22;4.20;;;15.30;99.90;;;;;;4931568;28;20049;-75
2023/08/07 00:17:41;;;;;;;4.65;3.53;;;15.20;99.90;;;;;;4945380;28;20044;-75
2023/08/07 00:20:07;;;;;;;5.97;3.83;;;15.20;99.90;;;;;;4948800;29;20036;-75
2023/08/07 00:22:33;;;;;;;5.85;3.80;;;15.30;99.90;;;;;;4947665;28;20379;-75
2023/08/07 00:24:58;;;;;;;4.63;3.55;;;15.30;99.90;;;;;;4946346;28;20059;-75
2023/08/07 00:27:24;;;;;;;5.97;4.20;;;15.20;99.90;;;;;;4928084;29;20043;-75
2023/08/07 00:29:49;;;;;;;9.52;3.95;;;15.30;99.90;;;;;;4959066;28;20050;-75
2023/08/07 00:32:15;;;;;;;5.35;3.35;;;15.20;99.90;;;;;;4945651;28;20039;-75
2023/08/07 00:34:40;;;;;;;3.45;2.55;;;15.20;99.90;;;;;;4927935;29;20038;-75
2023/08/07 00:37:06;;;;;;;4.57;3.10;;;15.20;99.90;;;;;;4944896;28;20371;-75
2023/08/07 00:39:31;;;;;;;3.88;2.53;;;15.20;99.90;;;;;;4929711;28;20047;-75
2023/08/07 00:41:57;;;;;;;9.13;3.25;;;15.20;99.90;;;;;;4955470;28;20047;-75
2023/08/07 00:44:26;;;;;;;6.28;3.25;;;15.20;99.90;;;;;;4930101;28;20425;-75
2023/08/07 00:46:51;;;;;;;4.10;2.90;;;15.20;99.90;;;;;;4965141;28;20166;-75
2023/08/07 00:49:19;;;;;;;3.28;2.53;;;15.20;99.90;;;;;;4951190;28;20118;-75
2023/08/07 00:51:45;;;;;;;4.60;2.72;;;15.10;99.90;;;;;;4936655;28;20461;-75
2023/08/07 00:54:13;;;;;;;10.07;2.45;;;15.10;99.90;;;;;;4930404;28;20039;-75
2023/08/07 00:56:39;;;;;;;4.65;2.55;;;15.10;99.90;;;;;;4930452;28;20070;-75
2023/08/07 00:59:05;;;;;;;3.65;2.72;;;15.10;99.90;;;;;;4934437;29;20057;-75
2023/08/07 01:01:31;;;;;;;3.45;2.50;;;15.10;99.90;;;;;;4936198;29;20051;-75
2023/08/07 01:03:56;;;;;;;9.65;3.40;;;15.10;99.90;;;;;;4948245;28;20061;-75
2023/08/07 01:06:22;;;;;;;6.20;2.65;;;15.10;99.90;;;;;;4928677;28;20091;-75
2023/08/07 01:08:47;;;;;;;3.30;2.22;;;15.00;99.90;;;;;;4944771;28;20094;-76
2023/08/07 01:11:28;;;;;;;4.95;3.10;;;15.00;99.90;;;;;;4948818;28;20140;-75
2023/08/07 01:14:15;;;;;;;3.85;2.58;;;14.90;99.90;;;;;;4950271;28;20044;-76
2023/08/07 01:16:52;;;;;;;5.07;2.70;;;15.00;99.90;;;;;;4965194;28;20051;-75
2023/08/07 01:19:26;;;;;;;8.63;2.92;;;15.00;99.90;;;;;;4949706;28;21451;-75
2023/08/07 01:22:11;;;;;;;5.80;2.70;;;15.00;99.90;;;;;;4944522;28;20047;-75
2023/08/07 01:24:39;;;;;;;4.63;2.10;;;14.90;99.90;;;;;;4951148;28;20047;-75
2023/08/07 01:27:17;;;;;;;3.97;2.65;;;14.90;99.90;;;;;;4930539;28;20912;-75
2023/08/07 01:29:49;;;;;;;6.38;2.10;;;14.90;99.90;;;;;;4953482;28;20038;-75
2023/08/07 01:32:19;;;;;;;8.98;2.50;;;15.00;99.90;;;;;;4950583;28;20158;-75
2023/08/07 01:34:46;;;;;;;6.80;2.22;;;14.90;99.90;;;;;;4946860;28;20079;-76
2023/08/07 01:37:13;;;;;;;8.13;2.55;;;14.90;99.90;;;;;;4946217;28;20036;-75
2023/08/07 01:39:40;;;;;;;7.15;2.00;;;14.80;99.90;;;;;;4966325;28;20474;-75
2023/08/07 01:42:07;;;;;;;10.25;2.17;;;14.80;99.90;;;;;;4951563;28;20070;-75
2023/08/07 01:44:32;;;;;;;9.27;2.88;;;14.90;99.90;;;;;;4937447;28;20075;-75
2023/08/07 01:46:58;;;;;;;6.63;2.15;;;14.80;99.90;;;;;;4926442;28;20086;-75
2023/08/07 01:49:24;;;;;;;8.55;2.55;;;14.80;99.90;;;;;;4954033;28;20142;-75
2023/08/07 01:51:49;;;;;;;10.80;2.35;;;14.80;99.90;;;;;;4934053;28;20539;-75
2023/08/07 01:54:15;;;;;;;7.63;1.50;;;14.80;99.90;;;;;;4948376;28;20039;-75
2023/08/07 01:56:40;;;;;;;10.77;2.28;;;14.80;99.90;;;;;;4946476;28;20070;-75
2023/08/07 01:59:06;;;;;;;8.52;2.03;;;14.80;99.90;;;;;;4947280;28;20055;-75
2023/08/07 02:01:32;;;;;;;8.40;2.13;;;14.80;99.90;;;;;;4948605;28;20058;-75
2023/08/07 02:03:57;;;;;;;8.70;2.10;;;14.80;99.90;;;;;;4941691;28;20047;-75
2023/08/07 02:06:23;;;;;;;8.65;2.58;;;14.80;99.90;;;;;;4957271;28;20546;-75
2023/08/07 02:08:49;;;;;;;8.93;2.03;;;14.70;99.90;;;;;;4941066;28;20043;-75
2023/08/07 02:11:14;;;;;;;9.35;1.92;;;14.70;99.90;;;;;;4925212;28;20155;-75
2023/08/07 02:13:40;;;;;;;6.60;1.40;;;14.70;99.90;;;;;;4944507;28;20043;-75
2023/08/07 02:16:05;;;;;;;9.70;1.75;;;14.60;99.90;;;;;;4922306;28;20118;-75
2023/08/07 02:18:31;;;;;;;8.25;2.05;;;14.60;99.90;;;;;;4926264;29;20045;-75
2023/08/07 02:20:56;;;;;;;9.55;1.80;;;14.50;99.90;;;;;;4923460;28;20043;-75
2023/08/07 02:23:22;;;;;;;3.95;1.33;;;14.50;99.90;;;;;;4949694;28;20043;-75
2023/08/07 02:25:48;;;;;;;9.18;2.10;;;14.50;99.90;;;;;;4941635;28;20043;-75
2023/08/07 02:28:14;;;;;;;9.57;2.13;;;14.50;99.90;;;;;;4945748;28;20141;-75
2023/08/07 02:30:39;;;;;;;10.35;2.28;;;14.40;99.90;;;;;;4947034;28;20138;-75
2023/08/07 02:33:05;;;;;;;4.85;1.30;;;14.40;99.90;;;;;;4927124;28;20070;-75
2023/08/07 02:35:31;;;;;;;9.00;1.73;;;14.40;99.90;;;;;;4944016;28;20070;-75
2023/08/07 02:37:56;;;;;;;8.18;1.92;;;14.30;99.90;;;;;;4946724;28;20039;-75
2023/08/07 02:40:22;;;;;;;12.18;1.83;;;14.30;99.90;;;;;;4949715;28;20054;-75
2023/08/07 02:42:47;;;;;;;9.55;2.30;;;14.30;99.90;;;;;;4947256;28;20051;-75
2023/08/07 02:45:13;;;;;;;7.95;1.73;;;14.20;99.90;;;;;;4945884;28;20048;-76
2023/08/07 02:47:39;;;;;;;15.02;1.70;;;14.20;99.90;;;;;;4945650;28;20039;-75
2023/08/07 02:50:05;;;;;;;9.73;1.90;;;14.20;99.90;;;;;;4944641;28;20079;-75
2023/08/07 02:52:30;;;;;;;9.15;1.95;;;14.20;99.90;;;;;;4930878;28;20047;-75
2023/08/07 02:54:56;;;;;;;7.72;1.95;;;14.20;99.90;;;;;;4932039;29;20039;-75
2023/08/07 02:57:21;;;;;;;13.15;1.70;;;14.20;99.90;;;;;;4944095;28;20047;-75
2023/08/07 02:59:47;;;;;;;10.05;2.22;;;14.20;99.90;;;;;;4943034;28;20039;-75
2023/08/07 03:02:13;;;;;;;14.68;2.85;;;14.20;99.90;;;;;;4930631;28;20082;-75
2023/08/07 03:04:38;;;;;;;7.57;1.40;;;14.20;99.90;;;;;;4948945;28;20047;-75
2023/08/07 03:07:04;;;;;;;11.02;1.73;;;14.20;99.90;;;;;;4926572;29;20670;-75
2023/08/07 03:09:29;;;;;;;12.32;2.60;;;14.30;99.90;;;;;;4941392;28;20098;-75
2023/08/07 03:11:55;;;;;;;6.38;1.55;;;14.30;99.90;;;;;;4942985;29;20220;-75
2023/08/07 03:14:21;;;;;;;7.82;1.45;;;14.20;99.90;;;;;;4924661;28;20039;-74
2023/08/07 03:16:46;;;;;;;13.20;2.47;;;14.20;99.90;;;;;;4922882;28;20134;-75
2023/08/07 03:19:12;;;;;;;12.73;1.55;;;14.20;99.90;;;;;;4946284;28;20047;-75
2023/08/07 03:21:38;;;;;;;9.32;2.00;;;14.20;99.90;;;;;;4946186;28;20043;-75
2023/08/07 03:24:04;;;;;;;9.63;1.48;;;14.20;99.90;;;;;;4929783;28;20142;-75
2023/08/07 03:26:30;;;;;;;10.25;1.50;;;14.20;99.90;;;;;;4928943;28;20145;-75
2023/08/07 03:28:55;;;;;;;12.63;2.75;;;14.10;99.90;;;;;;4927747;29;20078;-75
2023/08/07 03:31:21;;;;;;;10.35;1.85;;;14.20;99.90;;;;;;4930532;28;20043;-75
2023/08/07 03:33:47;;;;;;;9.18;1.63;;;14.20;99.90;;;;;;4948897;28;20726;-75
2023/08/07 03:36:12;;;;;;;14.13;1.77;;;14.20;99.90;;;;;;4947270;28;20399;-75
2023/08/07 03:38:38;;;;;;;14.80;2.33;;;14.10;99.90;;;;;;4947261;28;20039;-75
2023/08/07 03:41:03;;;;;;;7.35;2.60;;;14.30;99.90;;;;;;4944016;28;20071;-75
2023/08/07 03:43:29;;;;;;;9.07;1.95;;;14.20;99.90;;;;;;4933429;28;20050;-76
2023/08/07 03:45:56;;;;;;;17.08;2.63;;;14.20;99.90;;;;;;4929945;28;20060;-75
2023/08/07 03:48:22;;;;;;;8.02;1.48;;;14.30;99.90;;;;;;4965977;28;20047;-75
2023/08/07 03:50:47;;;;;;;9.90;2.65;;;14.30;99.90;;;;;;4951596;28;20483;-75
2023/08/07 03:53:13;;;;;;;7.78;2.15;;;14.40;99.90;;;;;;4930846;28;20051;-75
2023/08/07 03:55:39;;;;;;;8.02;1.65;;;14.40;99.90;;;;;;4949471;28;20409;-76
2023/08/07 03:58:05;;;;;;;10.85;2.40;;;14.30;99.90;;;;;;4944486;28;20035;-75
2023/08/07 04:00:30;;;;;;;10.52;2.10;;;14.30;99.90;;;;;;4945583;28;20039;-76
2023/08/07 04:02:56;;;;;;;14.07;2.28;;;14.40;99.90;;;;;;4941577;28;20522;-76
2023/08/07 04:05:21;;;;;;;8.68;2.28;;;14.40;99.90;;;;;;4931479;28;20082;-75
2023/08/07 04:07:47;;;;;;;7.28;1.92;;;14.40;99.90;;;;;;4951529;28;20438;-76
2023/08/07 04:10:13;;;;;;;9.48;1.73;;;14.50;99.90;;;;;;4932602;28;20529;-75
2023/08/07 04:12:38;;;;;;;11.90;2.90;;;14.50;99.90;;;;;;4933936;28;20047;-76
2023/08/07 04:15:04;;;;;;;13.50;2.50;;;14.50;99.90;;;;;;4949483;28;20071;-75
2023/08/07 04:17:30;;;;;;;11.57;2.00;;;14.50;99.90;;;;;;4950662;28;20058;-75
2023/08/07 04:19:56;;;;;;;9.70;2.35;;;14.60;99.90;;;;;;4945834;28;20039;-76
2023/08/07 04:22:21;;;;;;;10.70;2.28;;;14.60;99.90;;;;;;4949908;28;20051;-75
2023/08/07 04:24:47;;;;;;;12.23;2.17;;;14.60;99.90;;;;;;4950705;28;20043;-76
2023/08/07 04:27:12;;;;;;;5.93;2.08;;;14.60;99.90;;;;;;4963451;28;20201;-76
2023/08/07 04:29:38;;;;;;;7.57;1.98;;;14.60;99.90;;;;;;4930907;29;20051;-76
2023/08/07 04:32:04;;;;;;;7.03;1.60;;;14.60;99.90;;;;;;4947270;28;20047;-76
2023/08/07 04:34:29;;;;;;;8.65;1.67;;;14.60;99.90;;;;;;4942727;28;20035;-76
2023/08/07 04:36:56;;;;;;;10.60;2.08;;;14.60;99.90;;;;;;4933652;28;20124;-76
2023/08/07 04:39:22;;;;;;;8.10;1.80;;;14.60;99.90;;;;;;4949779;28;20158;-76
2023/08/07 04:41:49;;;;;;;8.00;1.50;;;14.60;99.90;;;;;;4966434;28;20042;-76
2023/08/07 04:44:16;;;;;;;6.50;1.92;;;14.60;99.90;;;;;;4932875;29;20496;-76
2023/08/07 04:46:41;;;;;;;9.73;2.47;;;14.60;99.90;;;;;;4918977;29;20054;-76
2023/08/07 04:49:07;;;;;;;8.30;1.83;;;14.60;99.90;;;;;;4927596;28;20047;-77
2023/08/07 04:51:33;;;;;;;9.38;2.20;;;14.60;99.90;;;;;;4948834;28;20036;-77
2023/08/07 04:53:58;;;;;;;11.68;2.65;;;14.70;99.90;;;;;;4932113;28;20219;-76
2023/08/07 04:56:24;;;;;;;12.52;3.15;;;14.70;99.90;;;;;;4930927;29;20036;-77
2023/08/07 04:58:50;;;;;;;7.93;2.53;;;14.70;99.90;;;;;;4961470;28;20043;-76
2023/08/07 05:01:16;;;;;;;10.82;2.33;;;14.70;99.90;;;;;;4946829;28;20035;-75
2023/08/07 05:03:41;;;;;;;14.43;2.30;;;14.80;99.90;;;;;;4929725;28;21607;-75
2023/08/07 05:06:07;;;;;;;8.30;2.33;;;14.80;99.90;;;;;;4951115;28;20036;-75
2023/08/07 05:08:32;;;;;;;8.77;2.08;;;14.80;99.90;;;;;;4946689;28;20043;-75
2023/08/07 05:10:58;;;;;;;7.93;2.30;;;14.80;99.90;;;;;;4940608;28;20520;-75
2023/08/07 05:13:24;;;;;;;7.13;1.67;;;14.80;99.90;;;;;;4960309;28;20047;-76
2023/08/07 05:15:49;;;;;;;8.98;2.05;;;14.80;99.90;;;;;;4943201;28;20126;-76
2023/08/07 05:18:16;;;;;;;7.93;2.47;;;14.80;99.90;;;;;;4956836;28;20044;-76
2023/08/07 05:20:42;;;;;;;7.40;1.80;;;14.80;99.90;;;;;;4942415;28;20035;-76
2023/08/07 05:23:08;;;;;;;6.55;1.80;;;14.90;99.90;;;;;;4928853;28;20051;-76
2023/08/07 05:25:33;;;;;;;7.95;2.20;;;14.80;99.90;;;;;;4948562;28;20031;-76
2023/08/07 05:27:59;;;;;;;5.25;1.70;;;14.80;99.90;;;;;;4942584;28;20439;-76
2023/08/07 05:30:24;;;;;;;5.97;1.35;;;14.90;99.90;;;;;;4929254;28;20046;-77
2023/08/07 05:32:50;;;;;;;5.13;1.55;;;14.80;99.90;;;;;;4930357;29;20052;-76
2023/08/07 05:35:16;;;;;;;9.32;3.15;;;14.80;99.90;;;;;;4943277;28;20091;-75
2023/08/07 05:37:41;;;;;;;10.88;2.55;;;14.80;99.90;;;;;;4943023;28;20032;-75
2023/08/07 05:40:07;;;;;;;8.10;2.30;;;14.80;99.90;;;;;;4944187;28;20459;-76
2023/08/07 05:42:34;;;;;;;7.85;1.88;;;14.80;99.90;;;;;;4945471;28;20171;-76
2023/08/07 05:45:00;;;;;;;10.48;2.53;;;14.80;99.90;;;;;;4948850;28;20058;-76
2023/08/07 05:47:26;;;;;;;10.45;2.30;;;14.90;99.90;;;;;;4946588;28;20048;-76
2023/08/07 05:49:52;;;;;;;11.30;2.30;;;14.80;99.90;;;;;;4947856;28;20051;-77
2023/08/07 05:52:18;;;;;;;12.95;3.35;;;14.90;99.90;;;;;;4956316;28;20059;-77
2023/08/07 05:54:43;;;;;;;11.30;3.45;;;14.90;99.90;;;;;;4914438;28;20043;-77
2023/08/07 05:57:10;;;;;;;11.77;3.00;;;14.90;99.90;;;;;;4940804;28;20043;-77
2023/08/07 05:59:36;;;;;;;12.90;2.72;;;15.00;99.90;;;;;;4947271;28;20035;-77
2023/08/07 06:02:02;;;;;;;13.57;3.17;;;15.10;99.90;;;;;;4945222;28;21357;-77
2023/08/07 06:04:28;;;;;;;11.35;2.95;;;15.30;99.90;;;;;;4926506;28;20664;-78
2023/08/07 06:06:55;;;;;;;11.52;3.10;;;15.70;99.90;;;;;;4941701;28;20050;-78
2023/08/07 06:09:21;;;;;;;8.85;2.65;;;16.10;99.90;;;;;;4959052;28;20946;-77
2023/08/07 06:11:48;;;;;;;13.00;3.65;;;16.40;99.90;;;;;;4928876;28;20081;-77
2023/08/07 06:14:14;;;;;;;9.85;2.70;;;16.90;99.90;;;;;;4939963;28;20372;-78
2023/08/07 06:16:40;;;;;;;12.27;3.03;;;17.30;99.90;;;;;;4948765;28;20688;-78
2023/08/07 06:19:05;;;;;;;14.95;2.70;;;17.60;99.90;;;;;;4939600;28;20054;-78
2023/08/07 06:21:31;;;;;;;14.07;2.92;;;17.50;99.90;;;;;;4921259;28;20049;-77
2023/08/07 06:23:57;;;;;;;13.55;2.83;;;17.30;99.90;;;;;;4937939;28;20047;-77
2023/08/07 06:26:23;;;;;;;7.55;2.10;;;17.00;99.90;;;;;;4951001;28;20139;-76
2023/08/07 06:28:48;;;;;;;8.40;2.97;;;16.90;99.90;;;;;;4922889;28;20042;-76
2023/08/07 06:31:16;;;;;;;6.78;1.58;;;16.60;99.90;;;;;;4939263;28;20051;-76
2023/08/07 06:33:42;;;;;;;5.47;1.05;;;16.30;99.90;;;;;;4939653;28;20165;-77
2023/08/07 06:36:08;;;;;;;6.20;1.20;;;16.00;99.90;;;;;;4950906;28;20073;-77
2023/08/07 06:38:34;;;;;;;7.68;1.30;;;15.80;99.90;;;;;;4931068;28;20081;-77
2023/08/07 06:41:00;;;;;;;5.45;1.13;;;15.70;99.90;;;;;;4922009;28;20126;-76
2023/08/07 06:43:25;;;;;;;7.15;1.20;;;15.70;99.90;;;;;;4939838;28;20070;-77
2023/08/07 06:45:51;;;;;;;6.35;1.58;;;15.60;99.90;;;;;;4951564;28;20053;-77
2023/08/07 06:48:18;;;;;;;5.95;1.88;;;15.60;99.90;;;;;;4933269;28;20125;-78
2023/08/07 06:50:44;;;;;;;6.97;1.88;;;15.50;99.90;;;;;;4921621;28;20047;-77
2023/08/07 06:53:09;;;;;;;7.90;2.25;;;15.50;99.90;;;;;;4937013;28;20038;-77
2023/08/07 06:55:35;;;;;;;6.55;2.00;;;15.50;99.90;;;;;;4941089;28;20078;-77
2023/08/07 06:58:01;;;;;;;10.70;2.45;;;15.50;99.90;;;;;;4920447;28;20066;-77
2023/08/07 07:00:26;;;;;;;6.38;1.88;;;15.40;99.90;;;;;;4912746;28;20054;-77
2023/08/07 07:02:52;;;;;;;9.15;2.75;;;15.50;99.90;;;;;;4938516;28;20420;-77
2023/08/07 07:05:18;;;;;;;13.07;3.35;;;15.60;99.90;;;;;;4939164;28;20054;-77
2023/08/07 07:07:44;;;;;;;13.38;2.22;;;15.80;99.90;;;;;;4922725;28;20047;-78
2023/08/07 07:10:09;;;;;;;15.38;3.60;;;16.00;99.90;;;;;;4937809;28;20098;-77
2023/08/07 07:12:35;;;;;;;9.48;2.85;;;16.20;99.90;;;;;;4921046;28;20050;-77
2023/08/07 07:15:01;;;;;;;11.95;2.40;;;16.50;99.90;;;;;;4950756;28;20036;-77
2023/08/07 07:17:27;;;;;;;10.95;2.10;;;16.90;99.90;;;;;;4938501;28;21866;-78
2023/08/07 07:19:53;;;;;;;8.05;2.13;;;17.30;99.90;;;;;;4938624;28;20047;-77
2023/08/07 07:22:19;;;;;;;8.65;2.85;;;17.50;99.90;;;;;;4940189;28;20047;-77
2023/08/07 07:24:45;;;;;;;10.40;2.70;;;17.40;99.90;;;;;;4949511;28;20050;-77
2023/08/07 07:27:10;;;;;;;7.07;1.85;;;17.40;99.90;;;;;;4939309;28;20046;-77
2023/08/07 07:29:37;;;;;;;4.30;1.40;;;17.20;99.90;;;;;;4917491;28;20072;-78
2023/08/07 07:32:03;;;;;;;8.23;2.72;;;16.90;99.90;;;;;;4946208;28;20047;-78
2023/08/07 07:34:28;;;;;;;4.82;1.15;;;16.80;99.90;;;;;;4941147;28;20039;-78
2023/08/07 07:36:54;;;;;;;6.80;1.52;;;16.70;99.90;;;;;;4940088;28;21463;-78
2023/08/07 07:39:20;;;;;;;3.90;1.65;;;16.70;99.90;;;;;;4942183;28;20035;-79
2023/08/07 07:41:46;;;;;;;4.88;1.85;;;16.90;99.90;;;;;;4940081;28;21946;-79
2023/08/07 07:44:12;;;;;;;7.53;1.73;;;17.40;99.90;;;;;;4917734;28;20047;-78
2023/08/07 07:46:38;;;;;;;5.82;1.35;;;17.40;99.90;;;;;;4910113;28;20043;-78
2023/08/07 07:49:04;;;;;;;8.05;1.85;;;17.40;99.90;;;;;;4944651;28;20051;-78
2023/08/07 07:51:31;;;;;;;4.43;1.10;;;17.20;99.90;;;;;;4941061;28;20138;-77
2023/08/07 07:53:58;;;;;;;2.60;0.90;;;17.00;99.90;;;;;;4953345;28;20050;-77
2023/08/07 07:56:24;;;;;;;3.38;0.75;;;16.90;99.90;;;;;;4941012;28;20039;-77
2023/08/07 07:58:49;;;;;;;4.97;1.00;;;16.70;99.90;;;;;;4954501;28;20038;-78
2023/08/07 08:01:15;;;;;;;3.72;1.30;;;16.60;99.90;;;;;;4939325;28;20183;-76
2023/08/07 08:03:43;;;;;;;3.05;0.70;;;16.50;99.90;;;;;;4922702;28;20051;-79
2023/08/07 08:06:11;;;;;;;3.78;0.95;;;16.60;99.90;;;;;;4921738;28;20046;-75
2023/08/07 08:08:37;;;;;;;4.60;0.98;;;16.60;99.90;;;;;;4940257;28;20049;-79
2023/08/07 08:11:03;;;;;;;5.93;1.27;;;16.60;99.90;;;;;;4938384;28;22112;-77
2023/08/07 08:13:28;;;;;;;6.82;1.50;;;17.00;99.90;;;;;;4944397;28;20117;-69
2023/08/07 08:15:54;;;;;;;3.55;0.98;;;17.40;99.90;;;;;;4942165;28;20048;-72
2023/08/07 08:18:20;;;;;;;6.47;1.27;;;17.90;99.90;;;;;;4954759;28;20066;-75
2023/08/07 08:20:45;;;;;;;6.32;1.90;;;18.20;99.90;;;;;;4930906;28;20035;-78
2023/08/07 08:23:11;;;;;;;7.85;1.60;;;18.60;99.90;;;;;;4945391;28;21651;-78
2023/08/07 08:25:37;;;;;;;4.63;1.27;;;18.60;99.90;;;;;;4941246;28;20855;-76
2023/08/07 08:28:03;;;;;;;6.22;2.22;;;18.50;99.90;;;;;;4940721;28;21740;-77
2023/08/07 08:30:29;;;;;;;14.93;2.42;;;18.30;99.90;;;;;;4926691;28;20467;-76
2023/08/07 08:32:55;;;;;;;6.55;1.63;;;17.90;99.90;;;;;;4940821;28;20043;-76
2023/08/07 08:35:21;;;;;;;9.32;2.10;;;17.70;99.90;;;;;;4924863;28;20039;-77
2023/08/07 08:37:47;;;;;;;9.85;2.72;;;17.50;99.90;;;;;;4942332;28;20034;-77
2023/08/07 08:40:16;;;;;;;8.75;2.03;;;17.30;99.90;;;;;;4943152;28;20038;-78
2023/08/07 08:42:44;;;;;;;6.90;2.20;;;17.30;99.90;;;;;;4940257;28;20457;-78
2023/08/07 08:45:12;;;;;;;10.15;2.65;;;17.50;99.90;;;;;;4942336;28;21479;-78
2023/08/07 08:47:40;;;;;;;9.43;2.45;;;17.70;99.90;;;;;;4939773;28;20058;-78
2023/08/07 08:50:14;;;;;;;13.18;2.50;;;17.80;99.90;;;;;;4924975;28;20062;-78
2023/08/07 08:52:45;;;;;;;8.25;2.30;;;17.90;99.90;;;;;;4942557;28;20115;-78
2023/08/07 08:55:12;;;;;;;6.50;2.00;;;18.10;99.90;;;;;;4955581;28;20122;-78
2023/08/07 08:57:39;;;;;;;6.63;2.30;;;18.50;99.90;;;;;;4939103;28;20046;-78
2023/08/07 09:00:15;;;;;;;11.15;3.08;;;18.70;99.90;;;;;;4924773;28;20071;-78
2023/08/07 09:02:42;;;;;;;6.18;1.75;;;18.90;99.90;;;;;;4942081;28;20671;-78
2023/08/07 09:05:09;;;;;;;7.45;2.28;;;19.10;99.90;;;;;;4923990;28;20086;-78
2023/08/07 09:07:35;;;;;;;5.88;2.05;;;19.40;99.90;;;;;;4951566;28;20044;-78
2023/08/07 09:10:02;;;;;;;12.32;2.80;;;19.60;99.90;;;;;;4939092;28;20046;-79
2023/08/07 09:12:32;;;;;;;7.03;1.92;;;19.90;99.90;;;;;;4941912;28;20078;-78
2023/08/07 09:15:01;;;;;;;8.23;2.25;;;20.10;99.90;;;;;;4941456;28;20035;-79
2023/08/07 09:21:08;;;;;;;7.90;2.28;;;20.10;99.90;;;;;;4953266;29;20057;-77
2023/08/07 09:27:16;;;;;;;9.02;2.47;;;19.60;99.90;;;;;;4952880;29;20037;-77
2023/08/07 09:33:28;;;;;;;8.95;2.65;;;19.40;99.90;;;;;;4951962;29;20162;-77
2023/08/07 09:35:58;;;;;;;10.80;2.45;;;19.50;99.90;;;;;;4953120;29;20048;-78
2023/08/07 09:42:04;;;;;;;7.15;1.98;;;20.10;99.90;;;;;;4952743;29;20097;-77
2023/08/07 09:48:11;;;;;;;3.60;1.25;;;20.50;99.90;;;;;;4951712;29;20413;-77
2023/08/07 09:54:18;;;;;;;6.35;1.75;;;20.80;99.90;;;;;;4952669;29;20058;-77
2023/08/07 10:00:24;;;;;;;8.80;2.28;;;20.50;99.90;;;;;;4952954;28;20382;-77
2023/08/07 10:02:50;;;;;;;9.02;1.85;;;20.00;99.90;;;;;;4967717;28;20051;-76
2023/08/07 10:05:17;;;;;;;7.00;2.72;;;19.70;99.90;;;;;;4952147;29;20047;-76
2023/08/07 10:07:43;;;;;;;13.02;3.00;;;19.40;99.90;;;;;;4952465;29;20049;-76
2023/08/07 10:10:10;;;;;;;6.20;2.05;;;19.30;99.90;;;;;;4953434;29;20617;-76
2023/08/07 10:12:36;;;;;;;10.32;3.05;;;19.40;99.90;;;;;;4935587;29;20055;-76
2023/08/07 10:18:43;;;;;;;7.13;1.40;;;19.90;99.90;;;;;;4952777;29;20034;-75
2023/08/07 10:24:52;;;;;;;5.78;1.70;;;20.50;99.90;;;;;;4952613;29;20058;-76
2023/08/07 10:27:21;;;;;;;5.43;1.90;;;20.50;99.90;;;;;;4952779;29;20050;-76
2023/08/07 10:33:28;;;;;;;9.27;1.38;;;19.80;99.90;;;;;;4952449;29;20110;-76
2023/08/07 10:35:53;;;;;;;10.85;1.77;;;19.40;99.90;;;;;;4953096;29;20037;-75
2023/08/07 10:38:22;;;;;;;7.07;2.15;;;19.20;99.90;;;;;;4967244;28;20534;-75
2023/08/07 10:41:03;;;;;;;9.13;2.03;;;19.10;99.90;;;;;;4935330;29;20046;-76
2023/08/07 10:47:09;;;;;;;7.25;1.70;;;19.40;99.90;;;;;;4952825;29;20046;-76
2023/08/07 10:53:21;;;;;;;7.85;2.15;;;19.60;99.90;;;;;;4952230;29;20079;-77
2023/08/07 10:55:47;;;;;;;6.95;1.95;;;19.40;99.90;;;;;;4952134;29;20035;-76
2023/08/07 11:01:55;;;;;;;6.43;1.65;;;18.80;99.90;;;;;;4951827;29;20200;-76
2023/08/07 11:04:24;;;;;;;7.25;2.28;;;18.70;99.90;;;;;;4952356;29;20043;-76
2023/08/07 11:10:30;;;;;;;7.68;2.22;;;18.50;99.90;;;;;;4952169;29;20537;-76
2023/08/07 11:12:58;;;;;;;9.95;2.28;;;18.70;99.90;;;;;;4953294;28;20047;-76
2023/08/07 11:19:05;;;;;;;3.80;1.33;;;19.50;99.90;;;;;;4956244;29;20038;-77
2023/08/07 11:21:32;;;;;;;8.20;1.67;;;19.40;99.90;;;;;;4956355;29;20366;-77
2023/08/07 11:27:38;;;;;;;5.45;1.60;;;19.00;99.90;;;;;;4955380;29;20181;-76
2023/08/07 11:30:05;;;;;;;7.68;1.67;;;19.00;99.90;;;;;;4956244;29;20082;-76
2023/08/07 11:32:30;;;;;;;5.05;1.48;;;19.20;99.90;;;;;;4956334;29;20047;-77
2023/08/07 11:34:56;;;;;;;3.90;1.30;;;19.20;99.90;;;;;;4956423;29;20046;-76
2023/08/07 11:37:22;;;;;;;3.85;1.00;;;19.20;99.90;;;;;;4970110;28;20434;-77
2023/08/07 11:39:48;;;;;;;6.95;1.42;;;19.20;99.90;;;;;;4970587;28;20132;-76
2023/08/07 11:45:54;;;;;;;7.38;1.42;;;19.00;99.90;;;;;;4955464;29;20090;-76
2023/08/07 11:48:24;;;;;;;6.22;1.35;;;18.90;99.90;;;;;;4955829;29;20137;-76
2023/08/07 11:50:51;;;;;;;4.03;1.13;;;19.00;99.90;;;;;;4955940;29;20596;-76
2023/08/07 11:53:16;;;;;;;8.77;2.15;;;19.20;99.90;;;;;;4955213;29;20694;-76
2023/08/07 11:55:59;;;;;;;7.45;1.40;;;19.30;99.90;;;;;;4955963;29;20076;-76
2023/08/07 11:58:25;;;;;;;7.32;1.40;;;19.30;99.90;;;;;;4970536;28;20126;-77
2023/08/07 12:00:52;;;;;;;10.13;2.42;;;19.20;99.90;;;;;;4938178;29;20070;-76
2023/08/07 12:06:59;;;;;;;4.25;1.05;;;19.60;99.90;;;;;;4954703;29;20038;-76
2023/08/07 12:09:26;;;;;;;6.82;1.10;;;19.60;99.90;;;;;;4954592;29;20399;-76
2023/08/07 12:11:57;;;;;;;4.60;1.52;;;19.60;99.90;;;;;;4955171;29;20039;-76
2023/08/07 12:14:22;;;;;;;5.20;1.25;;;19.60;99.90;;;;;;4955355;29;20065;-76
2023/08/07 12:16:49;;;;;;;4.45;1.40;;;19.50;99.90;;;;;;4954891;29;20091;-77
2023/08/07 13:04:29;;;;;;;3.78;1.08;;;18.60;99.90;;;;;;4958880;28;20039;-76
2023/08/07 13:06:55;;;;;;;5.65;1.10;;;18.80;99.90;;;;;;4969724;28;20051;-76
2023/08/07 13:09:20;;;;;;;3.95;0.90;;;19.00;99.90;;;;;;4970692;28;20142;-76
2023/08/07 13:11:46;;;;;;;8.60;2.05;;;19.10;99.90;;;;;;4955997;29;20039;-76
2023/08/07 13:17:52;;;;;;;4.60;1.45;;;19.40;99.90;;;;;;4956102;29;20121;-76
2023/08/07 13:20:18;;;;;;;3.30;1.05;;;19.30;99.90;;;;;;4970508;28;20475;-77
2023/08/07 13:22:45;;;;;;;4.80;1.42;;;19.30;99.90;;;;;;4955490;29;20419;-76
2023/08/07 13:25:12;;;;;;;4.72;1.40;;;19.20;99.90;;;;;;4955431;29;20043;-76
2023/08/07 13:27:38;;;;;;;4.28;1.10;;;19.00;99.90;;;;;;4937540;29;20072;-76
2023/08/07 13:30:04;;;;;;;2.42;0.88;;;18.90;99.90;;;;;;4938014;29;20126;-76
2023/08/07 13:32:31;;;;;;;10.55;1.70;;;18.80;99.90;;;;;;4953746;29;20047;-76
2023/08/07 13:34:57;;;;;;;6.93;1.88;;;18.80;99.90;;;;;;4938021;29;20530;-77
2023/08/07 13:37:23;;;;;;;4.97;2.00;;;18.70;99.90;;;;;;4969728;28;20099;-77
2023/08/07 13:43:29;;;;;;;5.57;2.00;;;18.90;99.90;;;;;;4956088;29;20038;-76
2023/08/07 13:45:54;;;;;;;5.72;2.00;;;19.10;99.90;;;;;;4955732;29;20035;-76
2023/08/07 13:48:21;;;;;;;5.10;1.75;;;19.00;99.90;;;;;;4970724;28;20047;-76
2023/08/07 13:50:47;;;;;;;5.05;1.92;;;18.90;99.90;;;;;;4956125;29;20114;-76
2023/08/07 13:53:12;;;;;;;4.97;1.95;;;19.00;99.90;;;;;;4956161;29;20054;-76
2023/08/07 13:55:38;;;;;;;4.78;2.00;;;19.20;99.90;;;;;;4970355;28;20039;-77
2023/08/07 13:58:04;;;;;;;5.25;1.65;;;19.20;99.90;;;;;;4955741;29;20043;-76
2023/08/07 14:04:10;;;;;;;6.75;2.45;;;18.80;99.90;;;;;;4955485;29;20081;-77
2023/08/07 14:06:36;;;;;;;7.20;2.25;;;18.70;99.90;;;;;;4970066;28;20546;-77
2023/08/07 14:12:42;;;;;;;11.05;1.88;;;18.50;99.90;;;;;;4955330;29;20054;-77
2023/08/07 14:15:08;;;;;;;7.95;2.03;;;18.60;99.90;;;;;;4955482;29;20043;-77
2023/08/07 14:17:34;;;;;;;4.18;1.48;;;18.70;99.90;;;;;;4955234;29;20410;-77
2023/08/07 14:19:59;;;;;;;6.63;2.22;;;18.70;99.90;;;;;;4970101;28;20530;-77
2023/08/07 14:22:25;;;;;;;8.30;1.90;;;19.00;99.90;;;;;;4955017;29;20043;-77
2023/08/07 14:24:51;;;;;;;4.13;1.55;;;19.00;99.90;;;;;;4955022;29;20130;-77
2023/08/07 14:27:17;;;;;;;6.35;1.60;;;19.20;99.90;;;;;;4954676;29;20051;-77
2023/08/07 14:29:42;;;;;;;9.05;2.03;;;19.50;99.90;;;;;;4969591;28;20043;-77
2023/08/07 14:32:08;;;;;;;6.47;2.03;;;19.50;99.90;;;;;;4955061;29;20077;-76
2023/08/07 14:38:14;;;;;;;5.50;1.60;;;19.50;99.90;;;;;;4954784;29;20034;-77
2023/08/07 14:40:41;;;;;;;6.07;2.13;;;19.60;99.90;;;;;;4954934;29;20035;-77
2023/08/07 14:43:06;;;;;;;5.38;1.33;;;19.60;99.90;;;;;;4955037;29;20410;-76
2023/08/07 14:45:32;;;;;;;7.18;1.95;;;19.50;99.90;;;;;;4954814;29;20050;-77
2023/08/07 14:47:58;;;;;;;5.25;1.67;;;19.30;99.90;;;;;;4968622;28;20410;-77
2023/08/07 14:50:23;;;;;;;9.95;1.75;;;19.30;99.90;;;;;;4954822;29;20510;-76